Airfield :
LOGIN :

Register | Disclaimer

   EN    FR    IT 

 










Legend :    VFR   Marginal VFR   IFR   Intensive IFR   Very Intensive IFR
Visi :
Ceiling :
>= 8 km
>= 3000ft
5 to 8 km
1000 to 3000 ft
1500m to 5 km
500 to 1000 ft
800 to 1500m
200 to 500 ft
< 800m
< 200 ft
Symbols :   Thunderstorms  Fog  Heavy snow  Heavy precipitations  Wind > 20 kt
SIGMETs :     Misc.  Thunderstorms  Icing  Turbulence  Mountain Waves  Volcanic Ashes







- Airport Elevation : 299 ft
- IATA code : EDM
- Download approach charts


LFRI - La Roche Sur Yon - Les Ajoncs

CURRENT METAR :
  • 210200Z AUTO 00000KT 0750 0500 R28/1400D FG NSC 15/14 Q1021

EXPIRED METARs :
  • 210130Z AUTO 25002KT 6000 0900 R28/P2000 BCFG NSC 15/14 Q1021
  • 210100Z AUTO 25001KT 1800 0900 R28/P2000 BCFG NSC 14/14 Q1021
  • 210030Z AUTO 24002KT CAVOK 15/15 Q1021
  • 210000Z AUTO 24003KT CAVOK 16/15 Q1021
  • 202330Z AUTO 23003KT CAVOK 16/15 Q1021

TAF TAF LFRI
Valid from the 20 at 18:00 until the 21 at 18:00 UTC


201700Z 2018/2118 26009KT 9999 SCT030
BECMG 2100/2103 VRB03KT
TEMPO 2103/2106 3000 BR BKN003
PROB30
TEMPO 2103/2106 0800 BCFG
BECMG 2116/2118 29010KT
No reported NOTAMs for that airfield.



MET'MAP, your aeronautical weather chart ! - Copyright ORBIFLY December 2007 - Disclaimer

ORBIFLY MET'MAP TEAM :

Programming & Development : Alexandra Zaïnal
Concept & Development : Baudouin d'Aumeries
Co-Development & Prog : Marc-Olivier Méhu
Technical & hardware support : Manuel Goepfert

Contact : metmap@orbifly.com




SOURCES & CREDITS :

   NOAA